CSA3 weather

Edmonton / Sturgeon Community Hospital Heliport
Alberta, Canada

Public forecast

Using degrees Celsius for public forecast. Weather courtesy of forecast.io.

METAR (pilot weather report)

Closest report is Edmonton (CFB Namao) Heliport, 5.6 nm (10.3 km) E. Retrieved 2019/09/22 07:11 UTC (34 minutes ago):

CYED 220711Z AUTO 22004KT 9SM FEW082 10/08 A2967

TAF (pilot weather forecast)

Forecast is more than 12 hours old.

Closest forecast is Edmonton (CFB Namao) Heliport, 5.6 nm (10.3 km) E. Retrieved 2019/09/20 00:33 UTC (2 days ago):

TAF CYED 202330Z 2100/2112 30008G18KT P6SM SCT050 BECMG 2101/2103 29005KT RMK NXT FCST BY 210600Z